createdAt,value
2023-06-29T00:01:12.209Z,6.80
2023-06-29T00:03:43.567Z,7.30
2023-06-29T00:06:11.207Z,8.00
2023-06-29T00:08:38.685Z,7.20
2023-06-29T00:11:07.016Z,8.30
2023-06-29T00:13:34.454Z,7.70
2023-06-29T00:16:02.884Z,7.90
2023-06-29T00:18:31.028Z,6.80
2023-06-29T00:20:58.911Z,6.70
2023-06-29T00:23:29.339Z,8.30
2023-06-29T00:25:58.089Z,8.20
2023-06-29T00:28:25.971Z,8.40
2023-06-29T00:30:53.472Z,7.30
2023-06-29T00:33:21.065Z,8.70
2023-06-29T00:35:48.654Z,8.00
2023-06-29T00:38:16.417Z,7.30
2023-06-29T00:40:44.242Z,8.40
2023-06-29T00:43:12.538Z,8.40
2023-06-29T00:45:40.056Z,7.90
2023-06-29T00:48:09.810Z,8.00
2023-06-29T00:50:38.101Z,8.60
2023-06-29T00:53:05.606Z,8.90
2023-06-29T00:55:33.618Z,8.40
2023-06-29T00:58:01.212Z,8.30
2023-06-29T01:00:28.736Z,7.50
2023-06-29T01:05:47.072Z,8.10
2023-06-29T01:08:24.624Z,9.00
2023-06-29T01:10:52.871Z,8.40
2023-06-29T01:13:21.324Z,8.80
2023-06-29T01:15:49.647Z,9.50
2023-06-29T01:18:18.489Z,8.50
2023-06-29T01:20:50.983Z,9.00
2023-06-29T01:23:27.121Z,8.90
2023-06-29T01:28:26.334Z,8.40
2023-06-29T01:30:53.916Z,9.00
2023-06-29T01:33:24.447Z,9.40
2023-06-29T01:35:58.918Z,8.60
2023-06-29T01:38:32.292Z,9.40
2023-06-29T01:41:02.692Z,9.20
2023-06-29T01:43:31.372Z,9.40
2023-06-29T01:45:59.419Z,9.60
2023-06-29T01:48:28.439Z,9.30
2023-06-29T01:50:56.587Z,7.70
2023-06-29T01:53:24.153Z,10.00
2023-06-29T01:55:51.848Z,10.00
2023-06-29T01:58:19.367Z,10.00
2023-06-29T02:00:47.964Z,9.20
2023-06-29T02:03:16.054Z,9.70
2023-06-29T02:05:44.150Z,8.70
2023-06-29T02:08:12.645Z,8.20
2023-06-29T02:10:41.608Z,9.30
2023-06-29T02:13:09.445Z,9.50
2023-06-29T02:15:37.186Z,10.30
2023-06-29T02:18:06.171Z,10.50
2023-06-29T02:20:33.553Z,9.80
2023-06-29T02:23:01.233Z,9.40
2023-06-29T02:25:29.287Z,9.20
2023-06-29T02:27:56.893Z,9.20
2023-06-29T02:30:24.697Z,9.70
2023-06-29T02:32:52.716Z,10.80
2023-06-29T02:35:20.033Z,9.50
2023-06-29T02:37:47.606Z,10.20
2023-06-29T02:40:15.251Z,9.40
2023-06-29T02:42:42.804Z,10.50
2023-06-29T02:45:10.683Z,10.00
2023-06-29T02:47:38.437Z,10.60
2023-06-29T02:50:06.495Z,9.60
2023-06-29T02:52:33.892Z,9.00
2023-06-29T02:55:01.439Z,9.20
2023-06-29T02:57:28.743Z,9.30
2023-06-29T02:59:56.093Z,10.50
2023-06-29T03:02:23.798Z,9.30
2023-06-29T03:04:51.170Z,9.10
2023-06-29T03:07:19.286Z,8.70
2023-06-29T03:09:46.984Z,8.70
2023-06-29T03:12:14.349Z,9.00
2023-06-29T03:14:41.654Z,10.40
2023-06-29T03:17:10.126Z,9.30
2023-06-29T03:19:37.691Z,9.40
2023-06-29T03:22:06.137Z,9.00
2023-06-29T03:24:33.833Z,8.10
2023-06-29T03:27:01.143Z,8.60
2023-06-29T03:29:29.117Z,9.20
2023-06-29T03:31:56.717Z,10.50
2023-06-29T03:34:24.100Z,9.30
2023-06-29T03:36:51.607Z,10.20
2023-06-29T03:39:20.956Z,8.70
2023-06-29T03:41:48.317Z,8.90
2023-06-29T03:44:15.878Z,9.10
2023-06-29T03:46:43.812Z,9.30
2023-06-29T03:49:11.325Z,9.80
2023-06-29T03:51:38.762Z,9.40
2023-06-29T03:54:06.409Z,9.80
2023-06-29T03:56:34.568Z,10.50
2023-06-29T03:59:02.471Z,9.50
2023-06-29T04:01:30.923Z,8.80
2023-06-29T04:03:58.323Z,9.70
2023-06-29T04:06:25.870Z,9.80
2023-06-29T04:08:53.354Z,10.70
2023-06-29T04:11:21.282Z,10.40
2023-06-29T04:13:48.848Z,10.50
2023-06-29T04:16:16.455Z,10.50
2023-06-29T04:18:43.902Z,10.80
2023-06-29T04:21:11.509Z,9.60
2023-06-29T04:23:39.116Z,9.80
2023-06-29T04:27:06.525Z,9.70
2023-06-29T04:30:17.393Z,9.30
2023-06-29T04:33:17.231Z,9.70
2023-06-29T04:35:51.911Z,8.90
2023-06-29T04:38:40.191Z,9.30
2023-06-29T04:41:49.912Z,9.50
2023-06-29T04:45:17.079Z,10.20
2023-06-29T04:48:47.245Z,10.60
2023-06-29T04:51:51.478Z,11.20
2023-06-29T04:54:40.207Z,10.30
2023-06-29T04:57:39.664Z,10.40
2023-06-29T05:31:32.965Z,9.80
2023-06-29T05:34:06.114Z,10.60
2023-06-29T05:36:34.018Z,9.90
2023-06-29T05:39:01.504Z,11.10
2023-06-29T05:41:40.860Z,11.00
2023-06-29T05:44:13.611Z,10.10
2023-06-29T05:47:20.868Z,11.40
2023-06-29T05:50:17.847Z,10.00
2023-06-29T05:53:09.352Z,10.80
2023-06-29T05:55:57.456Z,11.40
2023-06-29T05:59:07.969Z,10.90
2023-06-29T06:02:00.618Z,9.40
2023-06-29T06:04:52.733Z,9.80
2023-06-29T06:08:28.984Z,10.50
2023-06-29T06:11:16.462Z,9.70
2023-06-29T06:13:46.149Z,9.60
2023-06-29T06:16:14.244Z,10.60
2023-06-29T06:19:04.703Z,10.20
2023-06-29T06:21:55.791Z,9.10
2023-06-29T06:24:28.305Z,9.10
2023-06-29T06:27:16.131Z,9.50
2023-06-29T06:29:43.896Z,9.00
2023-06-29T06:32:11.576Z,9.10
2023-06-29T06:34:40.335Z,9.00
2023-06-29T06:37:08.557Z,8.60
2023-06-29T06:39:36.051Z,7.90
2023-06-29T06:42:03.537Z,7.20
2023-06-29T06:44:32.016Z,7.20
2023-06-29T06:46:59.710Z,6.70
2023-06-29T06:49:27.601Z,7.30
2023-06-29T06:51:55.161Z,7.80
2023-06-29T06:54:22.891Z,8.20
2023-06-29T06:56:50.649Z,8.40
2023-06-29T06:59:18.759Z,8.30
2023-06-29T07:01:46.365Z,7.80
2023-06-29T07:04:14.144Z,7.70
2023-06-29T07:06:41.562Z,8.80
2023-06-29T07:09:11.067Z,8.10
2023-06-29T07:11:41.042Z,7.80
2023-06-29T07:14:08.482Z,7.90
2023-06-29T07:16:36.004Z,8.50
2023-06-29T07:21:41.036Z,7.70
2023-06-29T07:24:10.634Z,7.60
2023-06-29T07:26:45.042Z,8.30
2023-06-29T07:29:12.760Z,5.80
2023-06-29T07:31:41.361Z,7.40
2023-06-29T07:34:09.207Z,6.30
2023-06-29T07:36:38.326Z,5.70
2023-06-29T07:39:10.605Z,5.90
2023-06-29T07:41:38.874Z,6.60
2023-06-29T07:44:06.886Z,6.90
2023-06-29T07:46:36.772Z,6.80
2023-06-29T07:49:05.433Z,6.40
2023-06-29T07:51:56.397Z,6.50
2023-06-29T07:54:24.643Z,6.80
2023-06-29T08:00:46.524Z,6.10
2023-06-29T08:03:14.565Z,6.30
2023-06-29T08:08:14.213Z,6.40
2023-06-29T08:10:42.689Z,5.90
2023-06-29T08:13:10.717Z,5.90
2023-06-29T08:15:38.245Z,6.50
2023-06-29T08:18:05.724Z,6.10
2023-06-29T08:20:33.002Z,6.40
2023-06-29T08:23:00.844Z,5.90
2023-06-29T08:25:29.095Z,6.80
2023-06-29T08:28:59.800Z,6.10
2023-06-29T08:32:54.270Z,5.50
2023-06-29T08:37:01.349Z,5.50
2023-06-29T08:40:56.619Z,5.10
2023-06-29T08:44:48.174Z,6.40
2023-06-29T08:48:44.070Z,5.60
2023-06-29T09:00:52.258Z,5.60
2023-06-29T09:04:49.173Z,5.40
2023-06-29T09:08:45.547Z,6.20
2023-06-29T09:12:33.333Z,6.20
2023-06-29T09:22:55.715Z,6.30
2023-06-29T09:25:33.813Z,5.60
2023-06-29T09:28:55.089Z,5.70
2023-06-29T09:32:14.689Z,6.50
2023-06-29T09:34:59.851Z,6.40
2023-06-29T09:37:31.881Z,5.90
2023-06-29T09:40:26.643Z,7.00
2023-06-29T09:43:19.857Z,7.00
2023-06-29T09:46:37.360Z,7.70
2023-06-29T09:49:11.104Z,8.00
2023-06-29T09:52:30.713Z,6.40
2023-06-29T09:55:59.310Z,6.20
2023-06-29T09:59:48.313Z,6.00
2023-06-29T10:02:56.952Z,6.10
2023-06-29T10:06:24.614Z,6.30
2023-06-29T10:10:18.913Z,5.90
2023-06-29T10:13:48.233Z,5.80
2023-06-29T10:17:23.719Z,5.50
2023-06-29T10:24:30.882Z,5.20
2023-06-29T10:27:59.801Z,4.70
2023-06-29T10:31:34.739Z,5.20
2023-06-29T10:34:25.207Z,4.50
2023-06-29T10:37:59.308Z,5.00
2023-06-29T10:41:52.015Z,4.90
2023-06-29T10:44:55.965Z,5.40
2023-06-29T10:47:45.111Z,4.90
2023-06-29T10:50:20.040Z,5.10
2023-06-29T10:52:51.878Z,4.70
2023-06-29T10:55:24.287Z,4.60
2023-06-29T10:58:22.406Z,4.90
2023-06-29T11:00:57.036Z,4.40
2023-06-29T11:03:26.435Z,4.20
2023-06-29T11:05:56.494Z,4.80
2023-06-29T11:08:26.047Z,5.40
2023-06-29T11:10:54.405Z,5.10
2023-06-29T11:13:41.560Z,4.10
2023-06-29T11:16:31.543Z,4.40
2023-06-29T11:19:02.206Z,5.00
2023-06-29T11:21:29.843Z,4.50
2023-06-29T11:24:03.804Z,4.60
2023-06-29T11:26:31.324Z,4.60
2023-06-29T11:28:58.810Z,4.50
2023-06-29T11:31:32.111Z,4.20
2023-06-29T11:34:01.872Z,4.80
2023-06-29T11:41:43.437Z,4.40
2023-06-29T11:45:31.886Z,4.10
2023-06-29T11:49:38.290Z,4.00
2023-06-29T11:53:34.455Z,4.50
2023-06-29T11:57:37.528Z,5.10
2023-06-29T12:01:31.012Z,4.70
2023-06-29T12:05:22.276Z,4.90
2023-06-29T12:09:14.489Z,4.10
2023-06-29T12:13:11.482Z,3.80
2023-06-29T12:20:56.414Z,2.80
2023-06-29T12:24:50.841Z,2.90
2023-06-29T12:28:38.945Z,2.90
2023-06-29T12:32:35.905Z,2.90
2023-06-29T12:36:28.875Z,2.30
2023-06-29T12:40:16.881Z,2.30
2023-06-29T12:51:59.380Z,3.10
2023-06-29T12:55:48.874Z,3.20
2023-06-29T13:03:40.740Z,3.00
2023-06-29T13:07:42.469Z,3.00
2023-06-29T13:11:13.932Z,2.70
2023-06-29T13:15:01.764Z,2.40
2023-06-29T13:18:51.524Z,2.80
2023-06-29T13:33:51.646Z,2.50
2023-06-29T13:37:39.761Z,2.60
2023-06-29T13:41:29.122Z,2.70
2023-06-29T13:45:39.198Z,2.10
2023-06-29T13:49:39.254Z,2.30
2023-06-29T13:57:04.405Z,2.60
2023-06-29T14:04:53.523Z,2.30
2023-06-29T14:08:41.775Z,2.70
2023-06-29T14:12:29.682Z,3.00
2023-06-29T14:16:25.125Z,2.50
2023-06-29T14:20:19.411Z,2.70
2023-06-29T14:24:25.220Z,2.40
2023-06-29T14:40:21.314Z,2.70
2023-06-29T14:52:06.699Z,2.40
2023-06-29T14:54:54.565Z,2.40
2023-06-29T14:57:24.883Z,2.30
2023-06-29T14:59:52.488Z,2.50
2023-06-29T15:02:21.183Z,2.60
2023-06-29T15:04:50.804Z,2.10
2023-06-29T15:07:18.702Z,2.50
2023-06-29T15:09:48.312Z,2.10
2023-06-29T15:12:18.088Z,2.40
2023-06-29T15:14:45.737Z,2.00
2023-06-29T15:17:13.217Z,2.30
2023-06-29T15:19:41.132Z,2.10
2023-06-29T15:22:09.963Z,2.10
2023-06-29T15:24:39.772Z,2.10
2023-06-29T15:27:38.763Z,2.20
2023-06-29T15:30:10.843Z,2.00
2023-06-29T15:32:38.226Z,1.90
2023-06-29T15:35:40.049Z,2.00
2023-06-29T15:38:07.637Z,2.00
2023-06-29T15:40:35.674Z,2.20
2023-06-29T15:43:03.133Z,1.80
2023-06-29T15:45:30.662Z,2.00
2023-06-29T15:47:58.797Z,2.00
2023-06-29T15:50:26.437Z,1.90
2023-06-29T15:52:59.501Z,1.70
2023-06-29T15:55:28.371Z,1.70
2023-06-29T15:57:55.801Z,1.70
2023-06-29T16:00:25.166Z,1.60
2023-06-29T16:02:54.690Z,1.70
2023-06-29T16:05:32.736Z,1.80
2023-06-29T16:08:02.710Z,1.80
2023-06-29T16:10:31.765Z,1.60
2023-06-29T16:12:59.572Z,1.60
2023-06-29T16:15:28.729Z,1.90
2023-06-29T16:17:58.790Z,1.90
2023-06-29T16:20:27.185Z,1.90
2023-06-29T16:23:08.625Z,1.60
2023-06-29T16:25:59.576Z,1.80
2023-06-29T16:28:47.206Z,1.70
2023-06-29T16:31:14.816Z,1.80
2023-06-29T16:33:51.532Z,1.70
2023-06-29T16:36:19.369Z,1.80
2023-06-29T16:38:47.089Z,1.50
2023-06-29T16:41:14.693Z,1.90
2023-06-29T16:43:44.467Z,2.10
2023-06-29T16:46:12.378Z,1.70
2023-06-29T16:48:40.017Z,1.30
2023-06-29T16:51:07.558Z,1.60
2023-06-29T16:53:52.483Z,1.60
2023-06-29T16:56:20.658Z,1.50
2023-06-29T16:58:48.089Z,1.80
2023-06-29T17:01:15.770Z,1.70
2023-06-29T17:03:44.702Z,1.50
2023-06-29T17:06:12.642Z,1.30
2023-06-29T17:08:41.553Z,1.50
2023-06-29T17:11:09.222Z,1.40
2023-06-29T17:13:36.654Z,1.70
2023-06-29T17:16:04.868Z,1.40
2023-06-29T17:18:32.697Z,1.40
2023-06-29T17:21:00.361Z,1.30
2023-06-29T17:23:27.770Z,1.30
2023-06-29T17:25:56.470Z,1.60
2023-06-29T17:28:24.037Z,1.80
2023-06-29T17:30:53.732Z,1.70
2023-06-29T17:33:22.457Z,1.60
2023-06-29T17:35:51.197Z,1.40
2023-06-29T17:38:18.571Z,1.50
2023-06-29T17:40:46.802Z,1.30
2023-06-29T17:43:34.686Z,1.20
2023-06-29T17:46:12.972Z,1.50
2023-06-29T17:48:40.535Z,1.70
2023-06-29T17:51:39.516Z,1.40
2023-06-29T17:54:11.028Z,1.50
2023-06-29T17:56:39.239Z,2.20
2023-06-29T17:59:46.023Z,1.70
2023-06-29T18:02:23.651Z,1.50
2023-06-29T18:04:51.557Z,1.90
2023-06-29T18:07:26.641Z,1.80
2023-06-29T18:09:56.505Z,1.60
2023-06-29T18:12:25.084Z,1.60
2023-06-29T18:14:55.229Z,1.70
2023-06-29T18:17:45.138Z,2.70
2023-06-29T18:20:17.000Z,1.70
2023-06-29T18:22:46.067Z,2.00
2023-06-29T18:25:14.288Z,1.70
2023-06-29T18:27:41.888Z,2.20
2023-06-29T18:30:10.564Z,2.20
2023-06-29T18:32:39.338Z,1.70
2023-06-29T18:35:07.555Z,2.10
2023-06-29T18:37:39.112Z,2.10
2023-06-29T18:40:09.262Z,2.10
2023-06-29T18:42:38.416Z,2.10
2023-06-29T18:45:09.078Z,2.10
2023-06-29T18:47:46.363Z,2.10
2023-06-29T18:50:14.378Z,2.60
2023-06-29T18:52:42.475Z,2.40
2023-06-29T18:55:10.380Z,2.40
2023-06-29T18:57:38.463Z,2.60
2023-06-29T19:00:10.637Z,2.40
2023-06-29T19:02:46.072Z,2.60
2023-06-29T19:05:14.226Z,3.20
2023-06-29T19:07:41.942Z,2.60
2023-06-29T19:10:12.369Z,2.90
2023-06-29T19:12:42.358Z,2.90
2023-06-29T19:15:11.408Z,3.00
2023-06-29T19:17:40.732Z,3.00
2023-06-29T19:20:09.557Z,3.40
2023-06-29T19:22:39.653Z,3.20
2023-06-29T19:25:08.743Z,3.30
2023-06-29T19:27:36.348Z,3.40
2023-06-29T19:30:06.421Z,3.30
2023-06-29T19:32:35.458Z,3.60
2023-06-29T19:35:17.145Z,3.60
2023-06-29T19:37:54.670Z,3.30
2023-06-29T19:40:22.803Z,3.50
2023-06-29T19:42:52.438Z,3.80
2023-06-29T19:45:24.373Z,3.40
2023-06-29T19:47:54.968Z,4.00
2023-06-29T19:50:25.502Z,3.70
2023-06-29T19:52:53.681Z,3.90
2023-06-29T19:55:21.371Z,3.70
2023-06-29T19:57:49.538Z,3.80
2023-06-29T20:00:20.960Z,4.60
2023-06-29T20:02:49.788Z,4.00
2023-06-29T20:05:17.451Z,3.80
2023-06-29T20:07:45.456Z,4.80
2023-06-29T20:10:13.446Z,4.50
2023-06-29T20:12:41.286Z,4.40
2023-06-29T20:15:11.985Z,4.70
2023-06-29T20:17:39.542Z,4.40
2023-06-29T20:20:07.901Z,3.80
2023-06-29T20:22:35.404Z,4.30
2023-06-29T20:25:02.993Z,4.00
2023-06-29T20:27:30.629Z,4.60
2023-06-29T20:29:58.481Z,4.50
2023-06-29T20:32:26.193Z,5.10
2023-06-29T20:34:54.133Z,5.10
2023-06-29T20:37:22.155Z,5.40
2023-06-29T20:39:49.804Z,5.40
2023-06-29T20:42:17.294Z,6.50
2023-06-29T20:44:49.596Z,6.00
2023-06-29T20:47:20.573Z,6.20
2023-06-29T20:49:48.196Z,6.50
2023-06-29T20:52:15.694Z,6.30
2023-06-29T20:54:43.186Z,6.00
2023-06-29T20:57:11.524Z,5.90
2023-06-29T20:59:38.945Z,5.80
2023-06-29T21:02:06.535Z,6.20
2023-06-29T21:04:34.497Z,5.40
2023-06-29T21:07:02.634Z,5.20
2023-06-29T21:09:29.891Z,4.80
2023-06-29T21:11:57.422Z,4.60
2023-06-29T21:14:28.023Z,5.10
2023-06-29T21:16:55.708Z,5.40
2023-06-29T21:19:23.535Z,4.80
2023-06-29T21:21:51.373Z,4.40
2023-06-29T21:24:18.947Z,4.20
2023-06-29T21:26:46.458Z,4.20
2023-06-29T21:29:33.350Z,4.30
2023-06-29T21:32:28.556Z,4.20
2023-06-29T21:35:16.239Z,4.30
2023-06-29T21:38:25.761Z,4.50
2023-06-29T21:41:15.573Z,4.20
2023-06-29T21:43:57.068Z,4.30
2023-06-29T21:47:06.319Z,3.90
2023-06-29T21:49:38.201Z,4.70
2023-06-29T21:52:07.733Z,3.90
2023-06-29T21:54:59.987Z,4.20
2023-06-29T21:57:35.541Z,4.00
2023-06-29T22:00:35.196Z,4.20
2023-06-29T22:03:37.881Z,4.30
2023-06-29T22:06:08.257Z,3.90
2023-06-29T22:08:39.281Z,4.30
2023-06-29T22:16:04.506Z,4.20
2023-06-29T22:19:52.438Z,4.00
2023-06-29T22:23:39.369Z,3.80
2023-06-29T22:27:26.341Z,3.90
2023-06-29T22:30:53.487Z,3.70
2023-06-29T22:34:03.633Z,4.60
2023-06-29T22:37:19.857Z,4.20
2023-06-29T22:41:06.954Z,4.00
2023-06-29T22:44:39.256Z,4.20
2023-06-29T22:48:18.507Z,3.70
2023-06-29T22:52:05.459Z,4.90
2023-06-29T22:55:52.464Z,4.10
2023-06-29T22:59:23.901Z,4.30
2023-06-29T23:02:33.036Z,4.20
2023-06-29T23:06:19.976Z,4.10
2023-06-29T23:08:55.620Z,4.30
2023-06-29T23:12:04.919Z,4.00
2023-06-29T23:15:31.600Z,4.00
2023-06-29T23:18:42.859Z,4.00
2023-06-29T23:22:11.495Z,4.50
2023-06-29T23:25:58.416Z,4.40
2023-06-29T23:29:45.278Z,4.30
2023-06-29T23:33:15.820Z,4.10
2023-06-29T23:36:43.034Z,4.10
2023-06-29T23:40:10.745Z,4.10
2023-06-29T23:43:27.226Z,4.20
2023-06-29T23:46:58.891Z,4.60
2023-06-29T23:50:45.901Z,4.00
2023-06-29T23:54:32.866Z,4.10
2023-06-29T23:57:59.862Z,3.80
